sensor_id;sensor_type;location;lat;lon;timestamp;P1;durP1;ratioP1;P2;durP2;ratioP2
18693;SDS011;9477;51.414;10.362;2023-03-01T00:00:50;11.93;;;6.87;;
18693;SDS011;9477;51.414;10.362;2023-03-01T00:02:54;12.47;;;6.87;;
18693;SDS011;9477;51.414;10.362;2023-03-01T00:04:57;13.77;;;7.23;;
18693;SDS011;9477;51.414;10.362;2023-03-01T00:07:00;10.03;;;6.67;;
18693;SDS011;9477;51.414;10.362;2023-03-01T00:09:03;11.87;;;6.70;;
18693;SDS011;9477;51.414;10.362;2023-03-01T00:11:06;10.23;;;6.93;;
18693;SDS011;9477;51.414;10.362;2023-03-01T00:13:10;12.50;;;7.40;;
18693;SDS011;9477;51.414;10.362;2023-03-01T00:15:14;11.70;;;7.30;;
18693;SDS011;9477;51.414;10.362;2023-03-01T00:17:17;13.90;;;7.53;;
18693;SDS011;9477;51.414;10.362;2023-03-01T00:19:20;11.13;;;7.27;;
18693;SDS011;9477;51.414;10.362;2023-03-01T00:21:24;11.40;;;7.23;;
18693;SDS011;9477;51.414;10.362;2023-03-01T00:23:28;9.67;;;7.03;;
18693;SDS011;9477;51.414;10.362;2023-03-01T00:25:31;12.43;;;6.80;;
18693;SDS011;9477;51.414;10.362;2023-03-01T00:27:33;15.27;;;7.60;;
18693;SDS011;9477;51.414;10.362;2023-03-01T00:29:36;16.97;;;7.17;;
18693;SDS011;9477;51.414;10.362;2023-03-01T00:31:41;12.27;;;7.47;;
18693;SDS011;9477;51.414;10.362;2023-03-01T00:33:44;10.67;;;7.27;;
18693;SDS011;9477;51.414;10.362;2023-03-01T00:35:47;11.83;;;8.00;;
18693;SDS011;9477;51.414;10.362;2023-03-01T00:37:51;14.63;;;7.93;;
18693;SDS011;9477;51.414;10.362;2023-03-01T00:39:58;10.67;;;7.00;;
18693;SDS011;9477;51.414;10.362;2023-03-01T00:42:01;13.27;;;7.70;;
18693;SDS011;9477;51.414;10.362;2023-03-01T00:44:05;16.03;;;8.47;;
18693;SDS011;9477;51.414;10.362;2023-03-01T00:46:09;11.83;;;7.80;;
18693;SDS011;9477;51.414;10.362;2023-03-01T00:48:14;12.30;;;8.13;;
18693;SDS011;9477;51.414;10.362;2023-03-01T00:50:18;16.00;;;8.47;;
18693;SDS011;9477;51.414;10.362;2023-03-01T00:52:22;16.70;;;8.30;;
18693;SDS011;9477;51.414;10.362;2023-03-01T00:54:25;12.67;;;8.30;;
18693;SDS011;9477;51.414;10.362;2023-03-01T00:56:30;15.83;;;8.03;;
18693;SDS011;9477;51.414;10.362;2023-03-01T00:58:34;14.57;;;8.53;;
18693;SDS011;9477;51.414;10.362;2023-03-01T01:00:37;16.80;;;7.90;;
18693;SDS011;9477;51.414;10.362;2023-03-01T01:02:40;15.07;;;8.27;;
18693;SDS011;9477;51.414;10.362;2023-03-01T01:04:45;13.93;;;8.53;;
18693;SDS011;9477;51.414;10.362;2023-03-01T01:06:48;13.33;;;8.27;;
18693;SDS011;9477;51.414;10.362;2023-03-01T01:08:51;13.50;;;8.37;;
18693;SDS011;9477;51.414;10.362;2023-03-01T01:10:55;14.80;;;8.07;;
18693;SDS011;9477;51.414;10.362;2023-03-01T01:12:58;16.80;;;9.30;;
18693;SDS011;9477;51.414;10.362;2023-03-01T01:15:01;19.67;;;8.63;;
18693;SDS011;9477;51.414;10.362;2023-03-01T01:17:04;15.63;;;9.90;;
18693;SDS011;9477;51.414;10.362;2023-03-01T01:19:07;17.63;;;9.77;;
18693;SDS011;9477;51.414;10.362;2023-03-01T01:21:13;19.20;;;11.17;;
18693;SDS011;9477;51.414;10.362;2023-03-01T01:23:17;18.60;;;11.30;;
18693;SDS011;9477;51.414;10.362;2023-03-01T01:25:21;18.60;;;10.47;;
18693;SDS011;9477;51.414;10.362;2023-03-01T01:27:26;18.33;;;11.17;;
18693;SDS011;9477;51.414;10.362;2023-03-01T01:29:28;19.00;;;11.60;;
18693;SDS011;9477;51.414;10.362;2023-03-01T01:31:32;16.37;;;10.87;;
18693;SDS011;9477;51.414;10.362;2023-03-01T01:33:36;21.07;;;11.83;;
18693;SDS011;9477;51.414;10.362;2023-03-01T01:35:39;22.00;;;11.77;;
18693;SDS011;9477;51.414;10.362;2023-03-01T01:37:43;19.03;;;11.53;;
18693;SDS011;9477;51.414;10.362;2023-03-01T01:39:47;18.90;;;11.63;;
18693;SDS011;9477;51.414;10.362;2023-03-01T01:41:50;18.77;;;11.27;;
18693;SDS011;9477;51.414;10.362;2023-03-01T01:46:16;14.20;;;9.80;;
18693;SDS011;9477;51.414;10.362;2023-03-01T01:48:28;15.73;;;9.90;;
18693;SDS011;9477;51.414;10.362;2023-03-01T01:50:41;16.83;;;9.83;;
18693;SDS011;9477;51.414;10.362;2023-03-01T01:52:47;15.37;;;9.37;;
18693;SDS011;9477;51.414;10.362;2023-03-01T01:54:53;16.23;;;10.10;;
18693;SDS011;9477;51.414;10.362;2023-03-01T01:57:01;15.20;;;9.40;;
18693;SDS011;9477;51.414;10.362;2023-03-01T01:59:08;14.13;;;9.00;;
18693;SDS011;9477;51.414;10.362;2023-03-01T02:01:11;15.03;;;8.90;;
18693;SDS011;9477;51.414;10.362;2023-03-01T02:03:16;14.63;;;8.77;;
18693;SDS011;9477;51.414;10.362;2023-03-01T02:05:24;16.13;;;8.17;;
18693;SDS011;9477;51.414;10.362;2023-03-01T02:07:35;14.07;;;8.67;;
18693;SDS011;9477;51.414;10.362;2023-03-01T02:09:43;13.03;;;8.30;;
18693;SDS011;9477;51.414;10.362;2023-03-01T02:11:50;13.80;;;7.73;;
18693;SDS011;9477;51.414;10.362;2023-03-01T02:13:54;11.93;;;8.17;;
18693;SDS011;9477;51.414;10.362;2023-03-01T02:15:57;12.57;;;8.23;;
18693;SDS011;9477;51.414;10.362;2023-03-01T02:18:01;14.97;;;8.20;;
18693;SDS011;9477;51.414;10.362;2023-03-01T02:20:09;13.13;;;7.40;;
18693;SDS011;9477;51.414;10.362;2023-03-01T02:22:20;15.73;;;8.33;;
18693;SDS011;9477;51.414;10.362;2023-03-01T02:24:28;12.60;;;7.73;;
18693;SDS011;9477;51.414;10.362;2023-03-01T02:26:42;10.33;;;6.87;;
18693;SDS011;9477;51.414;10.362;2023-03-01T02:28:51;12.23;;;8.00;;
18693;SDS011;9477;51.414;10.362;2023-03-01T02:30:54;13.17;;;8.10;;
18693;SDS011;9477;51.414;10.362;2023-03-01T02:33:11;14.47;;;8.03;;
18693;SDS011;9477;51.414;10.362;2023-03-01T02:35:14;14.13;;;8.00;;
18693;SDS011;9477;51.414;10.362;2023-03-01T02:37:19;13.67;;;7.47;;
18693;SDS011;9477;51.414;10.362;2023-03-01T02:39:26;12.73;;;7.77;;
18693;SDS011;9477;51.414;10.362;2023-03-01T02:41:34;11.57;;;7.20;;
18693;SDS011;9477;51.414;10.362;2023-03-01T02:43:39;13.20;;;7.07;;
18693;SDS011;9477;51.414;10.362;2023-03-01T02:45:47;14.07;;;7.43;;
18693;SDS011;9477;51.414;10.362;2023-03-01T02:47:53;11.90;;;8.03;;
18693;SDS011;9477;51.414;10.362;2023-03-01T02:49:56;12.17;;;7.93;;
18693;SDS011;9477;51.414;10.362;2023-03-01T02:52:07;11.60;;;7.37;;
18693;SDS011;9477;51.414;10.362;2023-03-01T02:54:24;15.43;;;8.70;;
18693;SDS011;9477;51.414;10.362;2023-03-01T02:56:31;14.93;;;8.27;;
18693;SDS011;9477;51.414;10.362;2023-03-01T02:58:34;13.20;;;7.60;;
18693;SDS011;9477;51.414;10.362;2023-03-01T03:00:47;11.60;;;7.67;;
18693;SDS011;9477;51.414;10.362;2023-03-01T03:02:52;13.40;;;7.83;;
18693;SDS011;9477;51.414;10.362;2023-03-01T03:04:57;13.77;;;8.10;;
18693;SDS011;9477;51.414;10.362;2023-03-01T03:07:00;12.53;;;7.80;;
18693;SDS011;9477;51.414;10.362;2023-03-01T03:09:04;11.17;;;7.43;;
18693;SDS011;9477;51.414;10.362;2023-03-01T03:11:09;11.30;;;7.50;;
18693;SDS011;9477;51.414;10.362;2023-03-01T03:13:12;12.63;;;8.03;;
18693;SDS011;9477;51.414;10.362;2023-03-01T03:15:16;11.17;;;7.30;;
18693;SDS011;9477;51.414;10.362;2023-03-01T03:17:21;15.33;;;7.97;;
18693;SDS011;9477;51.414;10.362;2023-03-01T03:19:24;14.33;;;8.17;;
18693;SDS011;9477;51.414;10.362;2023-03-01T03:21:27;14.57;;;8.60;;
18693;SDS011;9477;51.414;10.362;2023-03-01T03:23:30;11.77;;;7.73;;
18693;SDS011;9477;51.414;10.362;2023-03-01T03:25:33;13.40;;;7.80;;
18693;SDS011;9477;51.414;10.362;2023-03-01T03:27:39;12.63;;;8.27;;
18693;SDS011;9477;51.414;10.362;2023-03-01T03:29:43;16.07;;;8.80;;
18693;SDS011;9477;51.414;10.362;2023-03-01T03:31:46;15.03;;;8.53;;
18693;SDS011;9477;51.414;10.362;2023-03-01T03:33:50;12.27;;;7.63;;
18693;SDS011;9477;51.414;10.362;2023-03-01T03:35:53;12.40;;;7.77;;
18693;SDS011;9477;51.414;10.362;2023-03-01T03:37:56;11.47;;;7.87;;
18693;SDS011;9477;51.414;10.362;2023-03-01T03:40:08;14.73;;;8.47;;
18693;SDS011;9477;51.414;10.362;2023-03-01T03:42:16;16.23;;;9.00;;
18693;SDS011;9477;51.414;10.362;2023-03-01T03:44:20;16.33;;;8.97;;
18693;SDS011;9477;51.414;10.362;2023-03-01T03:46:23;14.57;;;8.43;;
18693;SDS011;9477;51.414;10.362;2023-03-01T03:48:26;14.80;;;8.37;;
18693;SDS011;9477;51.414;10.362;2023-03-01T03:50:31;14.30;;;7.90;;
18693;SDS011;9477;51.414;10.362;2023-03-01T03:52:35;12.07;;;8.13;;
18693;SDS011;9477;51.414;10.362;2023-03-01T03:54:38;14.17;;;8.23;;
18693;SDS011;9477;51.414;10.362;2023-03-01T03:56:41;16.70;;;8.77;;
18693;SDS011;9477;51.414;10.362;2023-03-01T03:58:45;14.77;;;8.97;;
18693;SDS011;9477;51.414;10.362;2023-03-01T04:00:49;13.97;;;8.77;;
18693;SDS011;9477;51.414;10.362;2023-03-01T04:02:54;13.00;;;7.90;;
18693;SDS011;9477;51.414;10.362;2023-03-01T04:04:57;16.03;;;9.40;;
18693;SDS011;9477;51.414;10.362;2023-03-01T04:07:02;16.67;;;9.00;;
18693;SDS011;9477;51.414;10.362;2023-03-01T04:09:05;12.33;;;8.63;;
18693;SDS011;9477;51.414;10.362;2023-03-01T04:11:08;13.40;;;8.63;;
18693;SDS011;9477;51.414;10.362;2023-03-01T04:13:29;13.40;;;8.73;;
18693;SDS011;9477;51.414;10.362;2023-03-01T04:15:33;19.27;;;10.03;;
18693;SDS011;9477;51.414;10.362;2023-03-01T04:17:36;16.50;;;9.63;;
18693;SDS011;9477;51.414;10.362;2023-03-01T04:19:40;16.70;;;9.23;;
18693;SDS011;9477;51.414;10.362;2023-03-01T04:21:45;18.80;;;10.93;;
18693;SDS011;9477;51.414;10.362;2023-03-01T04:23:49;20.70;;;10.63;;
18693;SDS011;9477;51.414;10.362;2023-03-01T04:25:54;16.63;;;9.83;;
18693;SDS011;9477;51.414;10.362;2023-03-01T04:27:58;17.47;;;10.33;;
18693;SDS011;9477;51.414;10.362;2023-03-01T04:30:01;21.57;;;11.27;;
18693;SDS011;9477;51.414;10.362;2023-03-01T04:32:06;18.73;;;10.40;;
18693;SDS011;9477;51.414;10.362;2023-03-01T04:34:09;18.53;;;10.60;;
18693;SDS011;9477;51.414;10.362;2023-03-01T04:36:13;19.60;;;10.60;;
18693;SDS011;9477;51.414;10.362;2023-03-01T04:38:17;18.40;;;10.67;;
18693;SDS011;9477;51.414;10.362;2023-03-01T04:40:22;16.47;;;9.97;;
18693;SDS011;9477;51.414;10.362;2023-03-01T04:42:25;16.63;;;9.57;;
18693;SDS011;9477;51.414;10.362;2023-03-01T04:44:28;17.10;;;9.70;;
18693;SDS011;9477;51.414;10.362;2023-03-01T04:46:33;15.43;;;9.10;;
18693;SDS011;9477;51.414;10.362;2023-03-01T04:48:36;16.50;;;9.57;;
18693;SDS011;9477;51.414;10.362;2023-03-01T04:50:40;14.17;;;8.70;;
18693;SDS011;9477;51.414;10.362;2023-03-01T04:52:43;15.63;;;8.83;;
18693;SDS011;9477;51.414;10.362;2023-03-01T04:54:47;13.93;;;8.67;;
18693;SDS011;9477;51.414;10.362;2023-03-01T04:56:51;15.13;;;7.77;;
18693;SDS011;9477;51.414;10.362;2023-03-01T04:58:54;18.60;;;8.33;;
18693;SDS011;9477;51.414;10.362;2023-03-01T05:00:56;13.50;;;7.83;;
18693;SDS011;9477;51.414;10.362;2023-03-01T05:03:00;15.67;;;7.80;;
18693;SDS011;9477;51.414;10.362;2023-03-01T05:05:03;13.20;;;7.73;;
18693;SDS011;9477;51.414;10.362;2023-03-01T05:07:07;15.70;;;7.63;;
18693;SDS011;9477;51.414;10.362;2023-03-01T05:09:10;14.07;;;7.90;;
18693;SDS011;9477;51.414;10.362;2023-03-01T05:11:13;14.07;;;7.87;;
18693;SDS011;9477;51.414;10.362;2023-03-01T05:13:18;17.00;;;7.57;;
18693;SDS011;9477;51.414;10.362;2023-03-01T05:15:23;12.60;;;7.57;;
18693;SDS011;9477;51.414;10.362;2023-03-01T05:17:27;14.70;;;8.03;;
18693;SDS011;9477;51.414;10.362;2023-03-01T05:19:29;14.60;;;7.73;;
18693;SDS011;9477;51.414;10.362;2023-03-01T05:21:34;11.20;;;7.27;;
18693;SDS011;9477;51.414;10.362;2023-03-01T05:23:58;13.07;;;7.30;;
18693;SDS011;9477;51.414;10.362;2023-03-01T05:26:02;16.80;;;7.67;;
18693;SDS011;9477;51.414;10.362;2023-03-01T05:28:11;13.87;;;7.70;;
18693;SDS011;9477;51.414;10.362;2023-03-01T05:30:16;14.07;;;7.30;;
18693;SDS011;9477;51.414;10.362;2023-03-01T05:32:19;16.33;;;8.60;;
18693;SDS011;9477;51.414;10.362;2023-03-01T05:34:23;12.57;;;7.90;;
18693;SDS011;9477;51.414;10.362;2023-03-01T05:36:26;17.77;;;9.40;;
18693;SDS011;9477;51.414;10.362;2023-03-01T05:38:30;12.67;;;7.93;;
18693;SDS011;9477;51.414;10.362;2023-03-01T05:40:33;13.97;;;7.50;;
18693;SDS011;9477;51.414;10.362;2023-03-01T05:42:37;12.57;;;7.50;;
18693;SDS011;9477;51.414;10.362;2023-03-01T05:44:39;14.17;;;7.30;;
18693;SDS011;9477;51.414;10.362;2023-03-01T05:46:44;10.83;;;7.13;;
18693;SDS011;9477;51.414;10.362;2023-03-01T05:48:47;13.50;;;8.17;;
18693;SDS011;9477;51.414;10.362;2023-03-01T05:50:50;16.63;;;7.67;;
18693;SDS011;9477;51.414;10.362;2023-03-01T05:52:56;18.37;;;8.27;;
18693;SDS011;9477;51.414;10.362;2023-03-01T05:55:00;19.20;;;9.20;;
18693;SDS011;9477;51.414;10.362;2023-03-01T05:57:03;15.57;;;8.63;;
18693;SDS011;9477;51.414;10.362;2023-03-01T05:59:06;14.03;;;8.00;;
18693;SDS011;9477;51.414;10.362;2023-03-01T06:01:10;14.50;;;8.37;;
18693;SDS011;9477;51.414;10.362;2023-03-01T06:03:16;14.47;;;8.43;;
18693;SDS011;9477;51.414;10.362;2023-03-01T06:05:20;16.43;;;8.80;;
18693;SDS011;9477;51.414;10.362;2023-03-01T06:07:23;13.20;;;7.87;;
18693;SDS011;9477;51.414;10.362;2023-03-01T06:09:26;16.27;;;8.33;;
18693;SDS011;9477;51.414;10.362;2023-03-01T06:11:29;15.70;;;9.07;;
18693;SDS011;9477;51.414;10.362;2023-03-01T06:13:32;16.90;;;8.87;;
18693;SDS011;9477;51.414;10.362;2023-03-01T06:15:35;15.40;;;7.90;;
18693;SDS011;9477;51.414;10.362;2023-03-01T06:17:39;15.40;;;9.00;;
18693;SDS011;9477;51.414;10.362;2023-03-01T06:19:44;24.30;;;13.33;;
18693;SDS011;9477;51.414;10.362;2023-03-01T06:21:48;21.13;;;10.83;;
18693;SDS011;9477;51.414;10.362;2023-03-01T06:23:51;24.70;;;11.53;;
18693;SDS011;9477;51.414;10.362;2023-03-01T06:25:54;28.47;;;13.30;;
18693;SDS011;9477;51.414;10.362;2023-03-01T06:27:57;21.40;;;10.90;;
18693;SDS011;9477;51.414;10.362;2023-03-01T06:30:00;14.03;;;8.67;;
18693;SDS011;9477;51.414;10.362;2023-03-01T06:32:03;13.47;;;7.00;;
18693;SDS011;9477;51.414;10.362;2023-03-01T06:34:06;12.50;;;6.90;;
18693;SDS011;9477;51.414;10.362;2023-03-01T06:36:10;12.67;;;7.63;;
18693;SDS011;9477;51.414;10.362;2023-03-01T06:38:13;14.07;;;7.23;;
18693;SDS011;9477;51.414;10.362;2023-03-01T06:40:18;11.77;;;6.83;;
18693;SDS011;9477;51.414;10.362;2023-03-01T06:42:22;13.33;;;7.33;;
18693;SDS011;9477;51.414;10.362;2023-03-01T06:44:25;14.93;;;7.33;;
18693;SDS011;9477;51.414;10.362;2023-03-01T06:46:28;11.17;;;7.17;;
18693;SDS011;9477;51.414;10.362;2023-03-01T06:48:33;14.67;;;7.77;;
18693;SDS011;9477;51.414;10.362;2023-03-01T06:50:36;15.80;;;8.07;;
18693;SDS011;9477;51.414;10.362;2023-03-01T06:52:41;11.23;;;7.47;;
18693;SDS011;9477;51.414;10.362;2023-03-01T06:54:45;13.13;;;7.67;;
18693;SDS011;9477;51.414;10.362;2023-03-01T06:56:48;12.00;;;7.33;;
18693;SDS011;9477;51.414;10.362;2023-03-01T06:58:52;12.97;;;8.10;;
18693;SDS011;9477;51.414;10.362;2023-03-01T07:00:54;14.53;;;8.60;;
18693;SDS011;9477;51.414;10.362;2023-03-01T07:02:58;13.90;;;8.10;;
18693;SDS011;9477;51.414;10.362;2023-03-01T07:05:03;14.20;;;8.57;;
18693;SDS011;9477;51.414;10.362;2023-03-01T07:07:06;18.63;;;8.03;;
18693;SDS011;9477;51.414;10.362;2023-03-01T07:09:11;23.77;;;10.97;;
18693;SDS011;9477;51.414;10.362;2023-03-01T07:11:14;14.53;;;8.60;;
18693;SDS011;9477;51.414;10.362;2023-03-01T07:13:17;21.33;;;8.50;;
18693;SDS011;9477;51.414;10.362;2023-03-01T07:15:20;16.83;;;9.03;;
18693;SDS011;9477;51.414;10.362;2023-03-01T07:17:23;26.67;;;14.53;;
18693;SDS011;9477;51.414;10.362;2023-03-01T07:19:25;16.57;;;9.70;;
18693;SDS011;9477;51.414;10.362;2023-03-01T07:21:28;15.13;;;8.27;;
18693;SDS011;9477;51.414;10.362;2023-03-01T07:23:31;15.33;;;8.60;;
18693;SDS011;9477;51.414;10.362;2023-03-01T07:25:36;13.53;;;8.47;;
18693;SDS011;9477;51.414;10.362;2023-03-01T07:27:38;13.00;;;8.40;;
18693;SDS011;9477;51.414;10.362;2023-03-01T07:29:41;13.07;;;8.00;;
18693;SDS011;9477;51.414;10.362;2023-03-01T07:31:44;14.03;;;8.63;;
18693;SDS011;9477;51.414;10.362;2023-03-01T07:33:47;11.80;;;8.20;;
18693;SDS011;9477;51.414;10.362;2023-03-01T07:35:55;14.10;;;8.20;;
18693;SDS011;9477;51.414;10.362;2023-03-01T07:37:59;14.20;;;9.00;;
18693;SDS011;9477;51.414;10.362;2023-03-01T07:40:03;12.77;;;7.90;;
18693;SDS011;9477;51.414;10.362;2023-03-01T07:42:08;18.03;;;8.87;;
18693;SDS011;9477;51.414;10.362;2023-03-01T07:44:10;15.37;;;8.27;;
18693;SDS011;9477;51.414;10.362;2023-03-01T07:46:13;13.60;;;7.83;;
18693;SDS011;9477;51.414;10.362;2023-03-01T07:48:16;15.07;;;8.47;;
18693;SDS011;9477;51.414;10.362;2023-03-01T07:50:19;14.03;;;8.03;;
18693;SDS011;9477;51.414;10.362;2023-03-01T07:52:23;13.67;;;8.60;;
18693;SDS011;9477;51.414;10.362;2023-03-01T07:54:26;15.73;;;8.50;;
18693;SDS011;9477;51.414;10.362;2023-03-01T07:56:30;13.70;;;8.17;;
18693;SDS011;9477;51.414;10.362;2023-03-01T07:58:35;15.83;;;8.80;;
18693;SDS011;9477;51.414;10.362;2023-03-01T08:00:39;14.57;;;8.47;;
18693;SDS011;9477;51.414;10.362;2023-03-01T08:02:42;13.43;;;8.77;;
18693;SDS011;9477;51.414;10.362;2023-03-01T08:04:45;14.40;;;9.07;;
18693;SDS011;9477;51.414;10.362;2023-03-01T08:06:47;13.40;;;7.83;;
18693;SDS011;9477;51.414;10.362;2023-03-01T08:08:50;15.43;;;8.70;;
18693;SDS011;9477;51.414;10.362;2023-03-01T08:10:55;13.27;;;8.00;;
18693;SDS011;9477;51.414;10.362;2023-03-01T08:12:59;14.20;;;8.13;;
18693;SDS011;9477;51.414;10.362;2023-03-01T08:15:03;17.07;;;9.03;;
18693;SDS011;9477;51.414;10.362;2023-03-01T08:17:07;19.37;;;8.57;;
18693;SDS011;9477;51.414;10.362;2023-03-01T08:19:11;15.90;;;8.50;;
18693;SDS011;9477;51.414;10.362;2023-03-01T08:21:15;13.03;;;8.10;;
18693;SDS011;9477;51.414;10.362;2023-03-01T08:23:19;14.53;;;8.27;;
18693;SDS011;9477;51.414;10.362;2023-03-01T08:25:22;10.43;;;7.10;;
18693;SDS011;9477;51.414;10.362;2023-03-01T08:27:25;12.37;;;7.53;;
18693;SDS011;9477;51.414;10.362;2023-03-01T08:29:29;12.40;;;7.33;;
18693;SDS011;9477;51.414;10.362;2023-03-01T08:31:35;12.30;;;7.60;;
18693;SDS011;9477;51.414;10.362;2023-03-01T08:33:40;11.47;;;6.80;;
18693;SDS011;9477;51.414;10.362;2023-03-01T08:35:43;12.00;;;7.37;;
18693;SDS011;9477;51.414;10.362;2023-03-01T08:37:46;13.43;;;6.97;;
18693;SDS011;9477;51.414;10.362;2023-03-01T08:39:49;16.10;;;7.17;;
18693;SDS011;9477;51.414;10.362;2023-03-01T08:41:52;14.80;;;6.77;;
18693;SDS011;9477;51.414;10.362;2023-03-01T08:43:55;14.57;;;6.97;;
18693;SDS011;9477;51.414;10.362;2023-03-01T08:46:00;13.00;;;6.33;;
18693;SDS011;9477;51.414;10.362;2023-03-01T08:48:04;14.33;;;6.97;;
18693;SDS011;9477;51.414;10.362;2023-03-01T08:50:08;13.00;;;6.83;;
18693;SDS011;9477;51.414;10.362;2023-03-01T08:52:11;13.20;;;6.73;;
18693;SDS011;9477;51.414;10.362;2023-03-01T08:54:15;13.23;;;7.03;;
18693;SDS011;9477;51.414;10.362;2023-03-01T08:56:19;13.07;;;6.53;;
18693;SDS011;9477;51.414;10.362;2023-03-01T08:58:22;12.90;;;7.00;;
18693;SDS011;9477;51.414;10.362;2023-03-01T09:00:25;11.77;;;6.37;;
18693;SDS011;9477;51.414;10.362;2023-03-01T09:02:28;11.63;;;6.53;;
18693;SDS011;9477;51.414;10.362;2023-03-01T09:04:32;10.90;;;6.33;;
18693;SDS011;9477;51.414;10.362;2023-03-01T09:06:35;8.90;;;6.03;;
18693;SDS011;9477;51.414;10.362;2023-03-01T09:08:39;13.77;;;6.57;;
18693;SDS011;9477;51.414;10.362;2023-03-01T09:10:43;13.20;;;6.53;;
18693;SDS011;9477;51.414;10.362;2023-03-01T09:12:46;13.43;;;6.47;;
18693;SDS011;9477;51.414;10.362;2023-03-01T09:14:49;10.87;;;6.23;;
18693;SDS011;9477;51.414;10.362;2023-03-01T09:16:52;18.37;;;6.40;;
18693;SDS011;9477;51.414;10.362;2023-03-01T09:18:55;12.20;;;6.50;;
18693;SDS011;9477;51.414;10.362;2023-03-01T09:21:02;11.63;;;6.47;;
18693;SDS011;9477;51.414;10.362;2023-03-01T09:23:08;13.97;;;6.93;;
18693;SDS011;9477;51.414;10.362;2023-03-01T09:25:11;11.10;;;6.10;;
18693;SDS011;9477;51.414;10.362;2023-03-01T09:27:14;10.40;;;6.40;;
18693;SDS011;9477;51.414;10.362;2023-03-01T09:29:20;12.93;;;6.50;;
18693;SDS011;9477;51.414;10.362;2023-03-01T09:31:24;10.90;;;5.97;;
18693;SDS011;9477;51.414;10.362;2023-03-01T09:33:27;11.53;;;6.53;;
18693;SDS011;9477;51.414;10.362;2023-03-01T09:35:30;12.10;;;5.80;;
18693;SDS011;9477;51.414;10.362;2023-03-01T09:37:35;12.83;;;6.83;;
18693;SDS011;9477;51.414;10.362;2023-03-01T09:39:39;13.87;;;6.57;;
18693;SDS011;9477;51.414;10.362;2023-03-01T09:41:44;11.97;;;6.70;;
18693;SDS011;9477;51.414;10.362;2023-03-01T09:43:50;12.20;;;6.73;;
18693;SDS011;9477;51.414;10.362;2023-03-01T09:45:58;11.53;;;6.90;;
18693;SDS011;9477;51.414;10.362;2023-03-01T09:48:06;11.40;;;6.67;;
18693;SDS011;9477;51.414;10.362;2023-03-01T09:50:16;12.57;;;7.00;;
18693;SDS011;9477;51.414;10.362;2023-03-01T09:52:21;10.97;;;6.73;;
18693;SDS011;9477;51.414;10.362;2023-03-01T09:54:32;12.23;;;6.90;;
18693;SDS011;9477;51.414;10.362;2023-03-01T09:56:36;10.87;;;6.70;;
18693;SDS011;9477;51.414;10.362;2023-03-01T09:58:46;12.67;;;6.90;;
18693;SDS011;9477;51.414;10.362;2023-03-01T10:00:53;13.10;;;6.73;;
18693;SDS011;9477;51.414;10.362;2023-03-01T10:03:03;10.63;;;6.50;;
18693;SDS011;9477;51.414;10.362;2023-03-01T10:05:19;14.80;;;6.67;;
18693;SDS011;9477;51.414;10.362;2023-03-01T10:07:32;11.40;;;6.03;;
18693;SDS011;9477;51.414;10.362;2023-03-01T10:09:43;9.80;;;6.70;;
18693;SDS011;9477;51.414;10.362;2023-03-01T10:11:48;11.67;;;6.50;;
18693;SDS011;9477;51.414;10.362;2023-03-01T10:13:55;14.03;;;6.37;;
18693;SDS011;9477;51.414;10.362;2023-03-01T10:16:05;13.57;;;6.50;;
18693;SDS011;9477;51.414;10.362;2023-03-01T10:18:14;13.37;;;6.57;;
18693;SDS011;9477;51.414;10.362;2023-03-01T10:20:22;12.10;;;7.00;;
18693;SDS011;9477;51.414;10.362;2023-03-01T10:22:26;16.50;;;6.80;;
18693;SDS011;9477;51.414;10.362;2023-03-01T10:24:34;10.70;;;6.70;;
18693;SDS011;9477;51.414;10.362;2023-03-01T10:26:50;15.73;;;7.63;;
18693;SDS011;9477;51.414;10.362;2023-03-01T10:28:59;12.80;;;6.60;;
18693;SDS011;9477;51.414;10.362;2023-03-01T10:31:05;11.77;;;6.87;;
18693;SDS011;9477;51.414;10.362;2023-03-01T10:33:16;11.40;;;6.50;;
18693;SDS011;9477;51.414;10.362;2023-03-01T10:35:23;13.00;;;7.40;;
18693;SDS011;9477;51.414;10.362;2023-03-01T10:37:28;13.13;;;6.93;;
18693;SDS011;9477;51.414;10.362;2023-03-01T10:39:31;11.07;;;6.67;;
18693;SDS011;9477;51.414;10.362;2023-03-01T10:41:35;11.60;;;6.57;;
18693;SDS011;9477;51.414;10.362;2023-03-01T10:43:55;11.33;;;7.17;;
18693;SDS011;9477;51.414;10.362;2023-03-01T10:46:01;12.80;;;7.70;;
18693;SDS011;9477;51.414;10.362;2023-03-01T10:48:06;13.50;;;7.53;;
18693;SDS011;9477;51.414;10.362;2023-03-01T10:50:18;11.40;;;7.47;;
18693;SDS011;9477;51.414;10.362;2023-03-01T10:52:23;15.57;;;7.80;;
18693;SDS011;9477;51.414;10.362;2023-03-01T10:54:29;12.37;;;7.57;;
18693;SDS011;9477;51.414;10.362;2023-03-01T10:56:45;13.87;;;7.43;;
18693;SDS011;9477;51.414;10.362;2023-03-01T10:58:58;12.43;;;7.27;;
18693;SDS011;9477;51.414;10.362;2023-03-01T11:01:03;13.20;;;7.07;;
18693;SDS011;9477;51.414;10.362;2023-03-01T11:03:12;12.70;;;7.17;;
18693;SDS011;9477;51.414;10.362;2023-03-01T11:05:19;11.43;;;7.17;;
18693;SDS011;9477;51.414;10.362;2023-03-01T11:07:25;10.93;;;6.33;;
18693;SDS011;9477;51.414;10.362;2023-03-01T11:09:30;11.87;;;7.17;;
18693;SDS011;9477;51.414;10.362;2023-03-01T11:11:38;15.20;;;7.30;;
18693;SDS011;9477;51.414;10.362;2023-03-01T11:13:47;17.13;;;7.00;;
18693;SDS011;9477;51.414;10.362;2023-03-01T11:16:01;10.23;;;6.60;;
18693;SDS011;9477;51.414;10.362;2023-03-01T11:18:17;11.43;;;6.67;;
18693;SDS011;9477;51.414;10.362;2023-03-01T11:20:28;11.97;;;6.70;;
18693;SDS011;9477;51.414;10.362;2023-03-01T11:22:34;12.20;;;6.97;;
18693;SDS011;9477;51.414;10.362;2023-03-01T11:24:39;10.53;;;6.67;;
18693;SDS011;9477;51.414;10.362;2023-03-01T11:26:45;10.00;;;6.63;;
18693;SDS011;9477;51.414;10.362;2023-03-01T11:28:53;11.23;;;6.83;;
18693;SDS011;9477;51.414;10.362;2023-03-01T11:31:00;12.10;;;6.80;;
18693;SDS011;9477;51.414;10.362;2023-03-01T11:33:12;11.77;;;6.33;;
18693;SDS011;9477;51.414;10.362;2023-03-01T11:35:20;10.80;;;6.40;;
18693;SDS011;9477;51.414;10.362;2023-03-01T11:37:32;9.60;;;6.00;;
18693;SDS011;9477;51.414;10.362;2023-03-01T11:39:39;9.27;;;5.93;;
18693;SDS011;9477;51.414;10.362;2023-03-01T11:41:46;9.27;;;6.60;;
18693;SDS011;9477;51.414;10.362;2023-03-01T11:43:55;9.60;;;6.13;;
18693;SDS011;9477;51.414;10.362;2023-03-01T11:48:45;13.47;;;6.40;;
18693;SDS011;9477;51.414;10.362;2023-03-01T11:50:56;9.57;;;6.10;;
18693;SDS011;9477;51.414;10.362;2023-03-01T11:53:09;11.87;;;6.27;;
18693;SDS011;9477;51.414;10.362;2023-03-01T11:55:29;11.13;;;6.70;;
18693;SDS011;9477;51.414;10.362;2023-03-01T11:57:49;11.77;;;6.57;;
18693;SDS011;9477;51.414;10.362;2023-03-01T12:00:11;9.53;;;5.90;;
18693;SDS011;9477;51.414;10.362;2023-03-01T12:05:04;11.27;;;6.30;;
18693;SDS011;9477;51.414;10.362;2023-03-01T12:07:18;10.90;;;7.03;;
18693;SDS011;9477;51.414;10.362;2023-03-01T12:09:36;12.47;;;7.23;;
18693;SDS011;9477;51.414;10.362;2023-03-01T12:11:51;10.63;;;6.17;;
18693;SDS011;9477;51.414;10.362;2023-03-01T12:14:24;12.57;;;7.10;;
18693;SDS011;9477;51.414;10.362;2023-03-01T12:16:52;10.70;;;6.37;;
18693;SDS011;9477;51.414;10.362;2023-03-01T12:19:08;9.97;;;6.23;;
18693;SDS011;9477;51.414;10.362;2023-03-01T12:21:27;12.67;;;6.97;;
18693;SDS011;9477;51.414;10.362;2023-03-01T12:23:48;11.97;;;6.67;;
18693;SDS011;9477;51.414;10.362;2023-03-01T12:26:05;11.57;;;6.33;;
18693;SDS011;9477;51.414;10.362;2023-03-01T12:30:41;11.30;;;6.60;;
18693;SDS011;9477;51.414;10.362;2023-03-01T12:32:55;10.60;;;7.13;;
18693;SDS011;9477;51.414;10.362;2023-03-01T12:35:20;11.63;;;6.03;;